Sohar Majis, Oman
Current Conditions -  °F | °C
As of 1:00 PM on Sunday 21 Dec 2014 (Local Time) from OMFJ Reporting Station
Clear Clear  
Wind Chill: 79°   Ceiling: Unl
Heat Index: 80°   Visibility: 5mi
Dew Point: 63°   Wind: 15mph
Humidity: 57%   Direction: 290°WNW
Pressure: 29.94"   Gusts: NA
Location:  24.47°N, 56.63°E
Report Text: OMFJ 210900Z 29013KT 260V330 8000 NSC 26/17 Q1014 A2996
Loading
Personal Weather Stations






























Interactive Weather Map New forecast layout! Learn more

10-Day Weather Forecast

Advertisements
Track Severe Weather on mobile